Easton, WA

11:07 PM PDT on October 21, 2014 (GMT -0700)
Double K - Easton WA | Change Station
CLOSE
Current Station
Personal Weather Station
Location: Cle Elum, WA
Elevation: 2159 ft
Nearby Weather Stations

Elev 2159 ft 47.22 °N, 121.16 °W | Updated 6 minutes ago

Partly Cloudy
Partly Cloudy
45.0 °F
Feels Like 42 °F
N
6.3
Wind Variable Wind from East

Today
High -- | Low -- °F
--% Chance of Precip.
Yesterday
High -- | Low -- °F
Precip. -- in
7:31 AM 6:05 PM
Waning Crescent, 3% visible
Pressure 29.91 in
Visibility 10.0 miles
Clouds Clear
Windchill 42 °F
Dew Point 45 °F
Humidity 99%
Rainfall 0.05 in
Snow Depth 0 in , 0 in , 0 in
UV 0 out of 12
Pollen .40 out of 12
Air Quality Not available.
Flu Activity Sporadic
METAR KELN 220553Z AUTO 07007KT 10SM CLR 08/04 A2990 RMK AO2 SLP128 T00780044 10172 20078 58006

More Conditions Fewer Conditions

Pressure 29.91 in
Visibility 10.0 miles
Clouds Clear
Windchill 42 °F
Dew Point 45 °F
Humidity 99%
Rainfall 0.05 in
Snow Depth 0 in , 0 in , 0 in
UV 0 out of 12
Pollen .40 out of 12
Air Quality Not available.
Flu Activity Sporadic
METAR KELN 220553Z AUTO 07007KT 10SM CLR 08/04 A2990 RMK AO2 SLP128 T00780044 10172 20078 58006

More Conditions Fewer Conditions

10-Day Weather Forecast

Almanac

Astronomy

Oct. 21, 2014 Rise Set
Actual Time 7:31 AM PDT 6:05 PM PDT
Civil Twilight 7:00 AM PDT 6:37 PM PDT
Nautical Twilight 6:25 AM PDT 7:12 PM PDT
Astronomical Twilight 5:49 AM PDT 7:48 PM PDT
Moon 5:12 AM PDT (10/21) 5:09 PM PDT (10/21)
Length of Visible Light 11h 36m
Length of Day
10h 34m
Tomorrow will be 3m 13s shorter.
Waning Crescent, 3% of the Moon is Illuminated
Oct 22
Waning Crescent
Oct 23
New
Oct 30
First Quarter
Nov 6
Full
Nov 14
Last Quarter

Yesterday's Extremes

State Highs State Lows

Community

WunderPhotos

Upload Photos

1,763,887 photos uploaded!

Nearby

Snow Depth

Station Depth Elevation
Stampede Pass 0 in 3860 ft
Meadows Pass 0 in 3500 ft
Mount Gardner 0 in 3000 ft
Blewett Pass 0 in 4270 ft
Morse Lake 0 in 5400 ft

Earthquake Activity

City Distance Mag. Time & Date
No recent earthquake activity has been reported nearby.
Minimum magnitude displayed is 2.5.

Coastal Water Temperatures

Place Temperature
No Stations Reporting

Nearby Weather Stations